createdAt,value
2023-11-02T00:02:05.996Z,96118.66
2023-11-02T00:04:32.642Z,96110.97
2023-11-02T00:06:59.390Z,96106.72
2023-11-02T00:09:36.458Z,96095.63
2023-11-02T00:12:12.487Z,96078.59
2023-11-02T00:14:45.136Z,96070.91
2023-11-02T00:17:29.920Z,96074.34
2023-11-02T00:19:56.479Z,96064.94
2023-11-02T00:22:23.011Z,96061.53
2023-11-02T00:24:52.703Z,96063.22
2023-11-02T00:27:19.365Z,96072.59
2023-11-02T00:29:45.993Z,96058.13
2023-11-02T00:32:12.544Z,96053.84
2023-11-02T00:34:40.766Z,96048.75
2023-11-02T00:37:07.644Z,96047.88
2023-11-02T00:39:34.205Z,96054.69
2023-11-02T00:42:00.803Z,96049.56
2023-11-02T00:44:27.665Z,96041.06
2023-11-02T00:46:54.251Z,96035.09
2023-11-02T00:49:24.010Z,96031.66
2023-11-02T00:51:56.624Z,96031.66
2023-11-02T00:54:38.148Z,96025.72
2023-11-02T00:57:06.250Z,96029.09
2023-11-02T00:59:33.250Z,96034.22
2023-11-02T01:01:59.778Z,96039.34
2023-11-02T01:04:41.202Z,96031.66
2023-11-02T01:07:07.755Z,96022.28
2023-11-02T01:09:50.739Z,96018.88
2023-11-02T01:12:32.868Z,96016.31
2023-11-02T01:14:59.823Z,96009.50
2023-11-02T01:17:33.296Z,95999.25
2023-11-02T01:20:12.924Z,95991.56
2023-11-02T01:23:00.184Z,95987.31
2023-11-02T01:25:28.492Z,95981.34
2023-11-02T01:28:04.732Z,95962.56
2023-11-02T01:30:54.283Z,95962.56
2023-11-02T01:33:38.001Z,95944.66
2023-11-02T01:36:08.023Z,95942.97
2023-11-02T01:38:35.160Z,95945.53
2023-11-02T01:41:03.293Z,95940.41
2023-11-02T01:43:29.723Z,95935.28
2023-11-02T01:45:57.454Z,95927.59
2023-11-02T01:48:28.698Z,95929.31
2023-11-02T01:51:09.752Z,95920.81
2023-11-02T01:53:52.601Z,95917.38
2023-11-02T01:56:25.180Z,95911.41
2023-11-02T01:59:17.822Z,95908.84
2023-11-02T02:01:55.763Z,95890.09
2023-11-02T02:04:55.264Z,95884.13
2023-11-02T02:07:33.543Z,95873.03
2023-11-02T02:10:15.678Z,95872.19
2023-11-02T02:13:11.208Z,95879.88
2023-11-02T02:16:11.965Z,95857.66
2023-11-02T02:18:45.048Z,95849.16
2023-11-02T02:21:35.337Z,95844.88
2023-11-02T02:24:08.206Z,95841.50
2023-11-02T02:26:41.779Z,95815.91
2023-11-02T02:29:45.463Z,95815.91
2023-11-02T02:32:30.191Z,95798.81
2023-11-02T02:35:16.804Z,95812.47
2023-11-02T02:38:06.348Z,95808.22
2023-11-02T02:40:38.224Z,95816.75
2023-11-02T02:43:05.693Z,95816.75
2023-11-02T02:45:34.250Z,95814.19
2023-11-02T02:48:02.082Z,95805.69
2023-11-02T02:50:30.203Z,95809.06
2023-11-02T02:52:58.098Z,95813.34
2023-11-02T02:55:25.019Z,95815.91
2023-11-02T02:57:51.659Z,95810.78
2023-11-02T03:00:18.402Z,95807.38
2023-11-02T03:02:45.195Z,95807.38
2023-11-02T03:05:12.063Z,95800.56
2023-11-02T03:07:38.733Z,95798.00
2023-11-02T03:10:07.804Z,95792.88
2023-11-02T03:12:35.758Z,95780.09
2023-11-02T03:15:09.004Z,95777.53
2023-11-02T03:18:00.345Z,95772.41
2023-11-02T03:20:26.976Z,95774.97
2023-11-02T03:22:54.443Z,95764.75
2023-11-02T03:25:33.417Z,95771.56
2023-11-02T03:28:08.792Z,95768.13
2023-11-02T03:30:54.117Z,95751.94
2023-11-02T03:33:44.801Z,95754.50
2023-11-02T03:36:31.280Z,95736.59
2023-11-02T03:39:10.304Z,95732.31
2023-11-02T03:41:53.304Z,95720.38
2023-11-02T03:44:35.335Z,95720.38
2023-11-02T03:47:22.629Z,95705.03
2023-11-02T03:49:51.946Z,95683.72
2023-11-02T03:52:37.171Z,95700.78
2023-11-02T03:55:33.095Z,95687.97
2023-11-02T03:58:09.262Z,95677.75
2023-11-02T04:00:41.856Z,95673.47
2023-11-02T04:03:08.809Z,95667.50
2023-11-02T04:05:38.947Z,95646.19
2023-11-02T04:08:10.838Z,95636.81
2023-11-02T04:10:38.102Z,95619.75
2023-11-02T04:13:08.251Z,95604.38
2023-11-02T04:15:34.834Z,95589.03
2023-11-02T04:18:01.736Z,95571.13
2023-11-02T04:20:28.359Z,95564.31
2023-11-02T04:22:54.977Z,95554.09
2023-11-02T04:25:21.607Z,95554.97
2023-11-02T04:27:48.157Z,95555.78
2023-11-02T04:30:16.464Z,95547.28
2023-11-02T04:32:43.798Z,95541.31
2023-11-02T04:35:11.723Z,95538.75
2023-11-02T04:37:38.359Z,95532.75
2023-11-02T04:40:05.329Z,95525.06
2023-11-02T04:42:31.907Z,95503.78
2023-11-02T04:44:58.472Z,95513.16
2023-11-02T04:47:25.200Z,95502.91
2023-11-02T04:49:51.728Z,95498.69
2023-11-02T04:52:18.309Z,95512.31
2023-11-02T04:54:44.952Z,95494.38
2023-11-02T04:57:11.544Z,95479.91
2023-11-02T04:59:44.087Z,95454.31
2023-11-02T05:02:11.867Z,95450.06
2023-11-02T05:04:38.916Z,95456.88
2023-11-02T05:07:05.652Z,95463.69
2023-11-02T05:09:32.245Z,95462.84
2023-11-02T05:11:58.926Z,95458.56
2023-11-02T05:14:25.498Z,95457.72
2023-11-02T05:16:52.043Z,95464.53
2023-11-02T05:19:18.612Z,95463.69
2023-11-02T05:21:45.195Z,95454.31
2023-11-02T05:24:11.760Z,95453.47
2023-11-02T05:26:40.717Z,95441.53
2023-11-02T05:29:07.269Z,95433.00
2023-11-02T05:31:34.039Z,95426.19
2023-11-02T05:34:00.659Z,95413.41
2023-11-02T05:36:27.336Z,95409.13
2023-11-02T05:38:53.915Z,95395.47
2023-11-02T05:41:21.004Z,95397.19
2023-11-02T05:43:47.576Z,95397.19
2023-11-02T05:46:14.195Z,95421.06
2023-11-02T05:48:40.916Z,95414.25
2023-11-02T05:51:07.567Z,95398.03
2023-11-02T05:53:34.117Z,95405.72
2023-11-02T05:56:01.083Z,95414.25
2023-11-02T05:58:27.737Z,95392.91
2023-11-02T06:00:55.541Z,95362.38
2023-11-02T06:03:22.178Z,95419.34
2023-11-02T06:05:48.840Z,95428.72
2023-11-02T06:08:15.358Z,95390.41
2023-11-02T06:10:41.970Z,95378.41
2023-11-02T06:13:08.527Z,95360.50
2023-11-02T06:15:35.290Z,95365.63
2023-11-02T06:18:02.909Z,95346.84
2023-11-02T06:20:29.625Z,95336.63
2023-11-02T06:22:56.245Z,95351.97
2023-11-02T06:25:22.835Z,95350.25
2023-11-02T06:27:49.392Z,95322.94
2023-11-02T06:30:16.094Z,95319.56
2023-11-02T06:32:42.720Z,95310.13
2023-11-02T06:35:10.130Z,95301.63
2023-11-02T06:37:56.087Z,95299.88
2023-11-02T06:40:22.804Z,95271.75
2023-11-02T06:42:51.085Z,95273.47
2023-11-02T06:45:18.390Z,95258.13
2023-11-02T06:47:45.657Z,95260.69
2023-11-02T06:50:12.241Z,95261.50
2023-11-02T06:52:39.015Z,95251.28
2023-11-02T06:55:06.031Z,95240.19
2023-11-02T06:57:32.639Z,95245.31
2023-11-02T06:59:59.253Z,95235.91
2023-11-02T07:02:25.838Z,95240.19
2023-11-02T07:04:59.121Z,95243.59
2023-11-02T07:07:25.931Z,95254.69
2023-11-02T07:09:52.792Z,95256.38
2023-11-02T07:12:19.514Z,95256.38
2023-11-02T07:14:47.458Z,95236.78
2023-11-02T07:17:15.205Z,95235.91
2023-11-02T07:19:41.744Z,95238.44
2023-11-02T07:22:08.295Z,95230.78
2023-11-02T07:24:34.886Z,95230.78
2023-11-02T07:27:01.445Z,95228.25
2023-11-02T07:29:28.014Z,95228.25
2023-11-02T07:31:54.569Z,95225.69
2023-11-02T07:34:21.125Z,95209.50
2023-11-02T07:36:47.719Z,95212.06
2023-11-02T07:39:15.093Z,95223.13
2023-11-02T07:41:41.788Z,95229.97
2023-11-02T07:44:08.387Z,95227.44
2023-11-02T07:46:34.990Z,95224.00
2023-11-02T07:49:01.676Z,95221.47
2023-11-02T07:51:28.403Z,95220.59
2023-11-02T07:53:54.953Z,95223.16
2023-11-02T07:56:21.536Z,95221.47
2023-11-02T07:58:48.113Z,95216.38
2023-11-02T08:01:17.725Z,95204.47
2023-11-02T08:03:44.307Z,95197.63
2023-11-02T08:06:11.040Z,95201.06
2023-11-02T08:08:39.019Z,95185.72
2023-11-02T08:11:06.047Z,95172.09
2023-11-02T08:13:32.616Z,95180.63
2023-11-02T08:15:59.395Z,95186.63
2023-11-02T08:18:26.882Z,95182.34
2023-11-02T08:20:53.403Z,95198.56
2023-11-02T08:23:20.185Z,95209.66
2023-11-02T08:25:46.942Z,95207.91
2023-11-02T08:28:13.564Z,95181.59
2023-11-02T08:33:07.318Z,95198.56
2023-11-02T08:35:33.936Z,95155.94
2023-11-02T08:38:00.472Z,95146.53
2023-11-02T08:40:27.215Z,95188.31
2023-11-02T08:42:53.771Z,95229.25
2023-11-02T08:45:20.887Z,95209.63
2023-11-02T08:47:47.488Z,95206.22
2023-11-02T08:50:14.091Z,95190.84
2023-11-02T08:52:41.396Z,95191.75
2023-11-02T08:55:08.372Z,95198.53
2023-11-02T08:57:36.291Z,95196.00
2023-11-02T09:00:04.238Z,95207.06
2023-11-02T09:02:32.716Z,95222.41
2023-11-02T09:05:00.828Z,95204.50
2023-11-02T09:07:29.836Z,95193.41
2023-11-02T09:09:56.485Z,95187.44
2023-11-02T09:12:23.463Z,95172.97
2023-11-02T09:14:50.078Z,95182.31
2023-11-02T09:17:16.657Z,95165.25
2023-11-02T09:19:43.202Z,95158.44
2023-11-02T09:22:09.899Z,95147.34
2023-11-02T09:24:36.622Z,95137.09
2023-11-02T09:27:03.305Z,95117.50
2023-11-02T09:29:29.825Z,95095.28
2023-11-02T09:32:02.495Z,95085.09
2023-11-02T09:34:32.235Z,95104.69
2023-11-02T09:36:59.168Z,95084.22
2023-11-02T09:39:25.853Z,95068.00
2023-11-02T09:41:52.487Z,95097.00
2023-11-02T09:44:19.069Z,95137.06
2023-11-02T09:46:45.637Z,95131.09
2023-11-02T09:49:12.243Z,95152.47
2023-11-02T09:51:38.842Z,95154.19
2023-11-02T09:54:05.625Z,95147.34
2023-11-02T09:56:32.205Z,95143.13
2023-11-02T09:58:58.808Z,95137.13
2023-11-02T10:01:25.589Z,95141.38
2023-11-02T10:03:53.012Z,95113.25
2023-11-02T10:06:19.727Z,95119.22
2023-11-02T10:08:46.274Z,95118.38
2023-11-02T10:11:15.379Z,95104.75
2023-11-02T10:13:44.265Z,95109.00
2023-11-02T10:16:10.837Z,95097.91
2023-11-02T10:18:37.468Z,95088.53
2023-11-02T10:21:09.633Z,95078.28
2023-11-02T10:23:52.278Z,95054.41
2023-11-02T10:26:19.164Z,95038.22
2023-11-02T10:28:45.779Z,95046.75
2023-11-02T10:31:12.545Z,95049.28
2023-11-02T10:33:40.239Z,95051.84
2023-11-02T10:36:07.113Z,95051.00
2023-11-02T10:38:33.989Z,95030.56
2023-11-02T10:41:01.011Z,95049.28
2023-11-02T10:43:28.870Z,95025.41
2023-11-02T10:45:55.664Z,95016.88
2023-11-02T10:48:22.719Z,95038.22
2023-11-02T10:50:50.841Z,95007.50
2023-11-02T10:53:20.459Z,94973.38
2023-11-02T10:55:47.100Z,94987.06
2023-11-02T10:58:14.004Z,94969.97
2023-11-02T11:00:40.702Z,94958.91
2023-11-02T11:03:08.164Z,94964.00
2023-11-02T11:05:36.654Z,94928.22
2023-11-02T11:08:05.509Z,94891.66
2023-11-02T11:10:32.084Z,94900.94
2023-11-02T11:12:58.663Z,94872.00
2023-11-02T11:15:26.579Z,94888.13
2023-11-02T11:17:53.317Z,94901.78
2023-11-02T11:20:20.520Z,94900.09
2023-11-02T11:22:47.629Z,94898.34
2023-11-02T11:25:15.202Z,94888.19
2023-11-02T11:27:41.981Z,94872.81
2023-11-02T11:30:35.460Z,94890.66
2023-11-02T11:33:02.857Z,94903.47
2023-11-02T11:35:29.488Z,94897.53
2023-11-02T11:37:59.296Z,94916.25
2023-11-02T11:40:26.166Z,94964.00
2023-11-02T11:43:16.664Z,94964.00
2023-11-02T11:46:02.169Z,94991.28
2023-11-02T11:48:40.453Z,94980.19
2023-11-02T11:51:32.662Z,94966.56
2023-11-02T11:54:13.579Z,94951.22
2023-11-02T11:56:40.499Z,94982.75
2023-11-02T11:59:07.372Z,95009.19
2023-11-02T12:01:33.964Z,95033.06
2023-11-02T12:04:00.469Z,95008.31
2023-11-02T12:06:53.677Z,95039.00
2023-11-02T12:09:26.307Z,95051.81
2023-11-02T12:11:52.868Z,95076.53
2023-11-02T12:14:20.703Z,95085.06
2023-11-02T12:16:48.760Z,95076.53
2023-11-02T12:19:17.033Z,95081.69
2023-11-02T12:21:43.897Z,95113.19
2023-11-02T12:24:13.990Z,95102.13
2023-11-02T12:26:41.958Z,95091.88
2023-11-02T12:29:12.550Z,95106.38
2023-11-02T12:31:43.660Z,95113.19
2023-11-02T12:34:12.659Z,95110.63
2023-11-02T12:36:39.416Z,95099.59
2023-11-02T12:39:15.056Z,95098.69
2023-11-02T12:41:42.938Z,95104.69
2023-11-02T12:44:10.588Z,95116.59
2023-11-02T12:46:39.713Z,95122.56
2023-11-02T12:49:20.377Z,95108.06
2023-11-02T12:51:50.463Z,95110.63
2023-11-02T12:54:18.586Z,95109.78
2023-11-02T12:56:45.923Z,95112.34
2023-11-02T12:59:13.404Z,95103.81
2023-11-02T13:01:49.733Z,95093.59
2023-11-02T13:04:17.027Z,95086.78
2023-11-02T13:06:43.915Z,95083.34
2023-11-02T13:09:14.967Z,95076.53
2023-11-02T13:11:44.982Z,95067.16
2023-11-02T13:14:18.964Z,95071.44
2023-11-02T13:16:49.680Z,95077.41
2023-11-02T13:19:16.202Z,95083.38
2023-11-02T13:21:43.114Z,95085.97
2023-11-02T13:24:10.388Z,95101.28
2023-11-02T13:26:38.953Z,95074.13
2023-11-02T13:29:08.932Z,95076.56
2023-11-02T13:31:36.578Z,95065.50
2023-11-02T13:34:07.061Z,95062.06
2023-11-02T13:36:34.168Z,95050.13
2023-11-02T13:39:01.168Z,95031.38
2023-11-02T13:41:27.767Z,95031.38
2023-11-02T13:43:55.892Z,95039.91
2023-11-02T13:46:23.103Z,95050.13
2023-11-02T13:48:49.800Z,95047.59
2023-11-02T13:51:16.897Z,95054.41
2023-11-02T13:53:43.516Z,95045.03
2023-11-02T13:56:13.190Z,95027.13
2023-11-02T13:58:39.869Z,95033.94
2023-11-02T14:01:07.158Z,95042.47
2023-11-02T14:03:34.807Z,95047.59
2023-11-02T14:06:04.406Z,95034.78
2023-11-02T14:08:33.813Z,95029.69
2023-11-02T14:11:06.777Z,95029.69
2023-11-02T14:13:34.234Z,95015.19
2023-11-02T14:16:00.920Z,95010.91
2023-11-02T14:18:28.058Z,95003.22
2023-11-02T14:20:54.604Z,94989.59
2023-11-02T14:23:22.123Z,94978.50
2023-11-02T14:25:49.739Z,94985.31
2023-11-02T14:28:16.310Z,94981.94
2023-11-02T14:30:44.235Z,94969.16
2023-11-02T14:33:12.444Z,94981.06
2023-11-02T14:35:39.413Z,94976.84
2023-11-02T14:38:07.395Z,94990.44
2023-11-02T14:40:35.025Z,94993.88
2023-11-02T14:43:05.218Z,94990.44
2023-11-02T14:45:32.801Z,95001.53
2023-11-02T14:47:59.514Z,94984.50
2023-11-02T14:50:26.207Z,94981.91
2023-11-02T14:52:52.955Z,94996.38
2023-11-02T14:55:20.782Z,94997.25
2023-11-02T14:57:47.565Z,95005.75
2023-11-02T15:00:14.699Z,94980.16
2023-11-02T15:02:42.194Z,94976.78
2023-11-02T15:05:11.000Z,94979.34
2023-11-02T15:07:37.968Z,94968.22
2023-11-02T15:10:04.744Z,94961.44
2023-11-02T15:12:31.456Z,94958.00
2023-11-02T15:14:58.233Z,94954.56
2023-11-02T15:17:24.816Z,94951.19
2023-11-02T15:19:51.430Z,94945.19
2023-11-02T15:22:17.992Z,94949.47
2023-11-02T15:24:44.945Z,94964.81
2023-11-02T15:27:11.479Z,94958.84
2023-11-02T15:29:38.074Z,94965.66
2023-11-02T15:32:04.736Z,94969.09
2023-11-02T15:34:32.198Z,94974.19
2023-11-02T15:37:00.028Z,94974.25
2023-11-02T15:39:29.410Z,94972.47
2023-11-02T15:41:57.365Z,94977.59
2023-11-02T15:44:24.128Z,94976.78
2023-11-02T15:46:50.700Z,94965.69
2023-11-02T15:49:17.284Z,94958.88
2023-11-02T15:51:44.608Z,94964.00
2023-11-02T15:54:12.854Z,94966.53
2023-11-02T15:56:42.557Z,94955.41
2023-11-02T15:59:09.401Z,94959.63
2023-11-02T16:01:37.277Z,94951.97
2023-11-02T16:04:04.887Z,94959.59
2023-11-02T16:06:31.703Z,94925.84
2023-11-02T16:08:58.441Z,94951.91
2023-11-02T16:11:25.111Z,94951.91
2023-11-02T16:13:51.674Z,94944.22
2023-11-02T16:16:18.205Z,94945.13
2023-11-02T16:18:44.982Z,94938.28
2023-11-02T16:21:11.632Z,94926.31
2023-11-02T16:23:38.162Z,94925.47
2023-11-02T16:26:04.876Z,94913.50
2023-11-02T16:28:34.346Z,94903.28
2023-11-02T16:31:01.142Z,94909.28
2023-11-02T16:33:28.177Z,94901.59
2023-11-02T16:35:55.289Z,94905.84
2023-11-02T16:38:21.923Z,94925.47
2023-11-02T16:40:48.541Z,94916.94
2023-11-02T16:43:15.096Z,94916.94
2023-11-02T16:45:43.287Z,94908.44
2023-11-02T16:48:09.858Z,94921.22
2023-11-02T16:50:36.678Z,94922.94
2023-11-02T16:53:03.293Z,94905.88
2023-11-02T16:55:29.896Z,94894.78
2023-11-02T16:57:56.491Z,94890.50
2023-11-02T17:00:23.279Z,94899.03
2023-11-02T17:02:49.981Z,94907.56
2023-11-02T17:05:16.775Z,94904.22
2023-11-02T17:07:43.446Z,94907.59
2023-11-02T17:10:11.348Z,94890.50
2023-11-02T17:12:37.964Z,94892.25
2023-11-02T17:15:08.717Z,94891.41
2023-11-02T17:17:35.776Z,94884.56
2023-11-02T17:20:04.419Z,94889.69
2023-11-02T17:22:30.981Z,94886.28
2023-11-02T17:24:58.004Z,94868.38
2023-11-02T17:27:24.728Z,94868.38
2023-11-02T17:29:51.493Z,94861.53
2023-11-02T17:32:18.052Z,94850.47
2023-11-02T17:34:44.729Z,94826.56
2023-11-02T17:37:11.268Z,94814.66
2023-11-02T17:39:37.899Z,94807.81
2023-11-02T17:42:04.640Z,94800.19
2023-11-02T17:44:31.225Z,94807.84
2023-11-02T17:46:57.739Z,94800.19
2023-11-02T17:49:24.365Z,94800.19
2023-11-02T17:51:51.069Z,94802.72
2023-11-02T17:54:17.603Z,94806.13
2023-11-02T17:56:44.254Z,94812.13
2023-11-02T17:59:11.190Z,94812.97
2023-11-02T18:01:37.906Z,94805.28
2023-11-02T18:04:04.646Z,94801.00
2023-11-02T18:06:31.468Z,94797.63
2023-11-02T18:09:01.824Z,94795.88
2023-11-02T18:11:30.107Z,94797.63
2023-11-02T18:13:57.506Z,94795.06
2023-11-02T18:16:24.021Z,94792.50
2023-11-02T18:18:50.659Z,94801.84
2023-11-02T18:21:17.238Z,94801.00
2023-11-02T18:23:43.749Z,94807.84
2023-11-02T18:26:12.470Z,94811.22
2023-11-02T18:28:39.395Z,94813.78
2023-11-02T18:31:05.963Z,94806.13
2023-11-02T18:33:32.865Z,94797.63
2023-11-02T18:35:59.606Z,94814.66
2023-11-02T18:38:37.442Z,94818.09
2023-11-02T18:41:04.317Z,94800.19
2023-11-02T18:43:33.395Z,94789.94
2023-11-02T18:46:00.257Z,94768.63
2023-11-02T18:48:26.975Z,94754.19
2023-11-02T18:50:53.745Z,94789.94
2023-11-02T18:53:20.336Z,94802.00
2023-11-02T18:55:46.934Z,94802.72
2023-11-02T18:58:13.465Z,94818.06
2023-11-02T19:00:41.602Z,94837.69
2023-11-02T19:03:08.263Z,94856.47
2023-11-02T19:05:36.684Z,94862.41
2023-11-02T19:08:03.550Z,94857.41
2023-11-02T19:10:30.378Z,94883.72
2023-11-02T19:12:56.961Z,94870.06
2023-11-02T19:15:23.690Z,94861.56
2023-11-02T19:17:50.631Z,94848.78
2023-11-02T19:20:17.311Z,94853.03
2023-11-02T19:22:45.125Z,94859.00
2023-11-02T19:25:11.742Z,94853.88
2023-11-02T19:27:38.696Z,94869.25
2023-11-02T19:30:09.942Z,94873.56
2023-11-02T19:32:37.521Z,94887.13
2023-11-02T19:35:05.779Z,94896.50
2023-11-02T19:37:32.370Z,94910.13
2023-11-02T19:39:58.934Z,94894.75
2023-11-02T19:42:25.487Z,94877.69
2023-11-02T19:44:52.255Z,94866.59
2023-11-02T19:47:19.494Z,94867.41
2023-11-02T19:49:48.103Z,94890.44
2023-11-02T19:52:14.678Z,94889.63
2023-11-02T19:54:41.483Z,94886.22
2023-11-02T19:57:08.153Z,94876.84
2023-11-02T19:59:34.756Z,94871.81
2023-11-02T20:02:01.309Z,94877.69
2023-11-02T20:04:28.745Z,94876.00
2023-11-02T20:06:56.102Z,94856.56
2023-11-02T20:09:22.923Z,94852.13
2023-11-02T20:11:49.530Z,94868.34
2023-11-02T20:14:16.211Z,94887.13
2023-11-02T20:16:42.739Z,94905.88
2023-11-02T20:19:09.547Z,94893.94
2023-11-02T20:21:37.493Z,94887.97
2023-11-02T20:24:05.421Z,94882.00
2023-11-02T20:26:32.134Z,94874.34
2023-11-02T20:28:58.683Z,94881.16
2023-11-02T20:31:25.278Z,94888.84
2023-11-02T20:33:51.941Z,94882.03
2023-11-02T20:36:20.208Z,94866.69
2023-11-02T20:38:49.413Z,94864.97
2023-11-02T20:41:16.879Z,94863.31
2023-11-02T20:43:43.697Z,94870.13
2023-11-02T20:46:10.622Z,94872.69
2023-11-02T20:48:37.612Z,94855.63
2023-11-02T20:51:04.901Z,94836.03
2023-11-02T20:53:31.504Z,94824.97
2023-11-02T20:56:00.794Z,94835.19
2023-11-02T20:58:27.363Z,94857.31
2023-11-02T21:00:54.818Z,94847.94
2023-11-02T21:03:22.535Z,94838.59
2023-11-02T21:05:49.333Z,94841.97
2023-11-02T21:08:15.993Z,94858.19
2023-11-02T21:10:42.727Z,94845.41
2023-11-02T21:13:09.422Z,94838.59
2023-11-02T21:15:36.121Z,94821.53
2023-11-02T21:18:02.910Z,94790.94
2023-11-02T21:20:29.548Z,94783.16
2023-11-02T21:22:56.140Z,94757.59
2023-11-02T21:25:22.785Z,94745.66
2023-11-02T21:27:49.424Z,94719.22
2023-11-02T21:30:15.958Z,94737.13
2023-11-02T21:32:42.816Z,94758.44
2023-11-02T21:35:09.492Z,94790.84
2023-11-02T21:37:36.007Z,94801.97
2023-11-02T21:40:05.512Z,94807.06
2023-11-02T21:42:32.511Z,94795.13
2023-11-02T21:44:59.097Z,94772.91
2023-11-02T21:47:25.659Z,94749.06
2023-11-02T21:49:52.166Z,94685.59
2023-11-02T21:52:18.790Z,94731.16
2023-11-02T21:54:45.441Z,94744.81
2023-11-02T21:57:12.308Z,94778.06
2023-11-02T21:59:38.853Z,94778.06
2023-11-02T22:02:05.407Z,94786.59
2023-11-02T22:04:31.977Z,94786.59
2023-11-02T22:06:58.657Z,94793.41
2023-11-02T22:09:25.683Z,94797.69
2023-11-02T22:11:54.592Z,94801.16
2023-11-02T22:14:21.633Z,94818.16
2023-11-02T22:16:48.418Z,94817.31
2023-11-02T22:19:16.194Z,94830.09
2023-11-02T22:21:42.901Z,94829.25
2023-11-02T22:24:09.584Z,94839.47
2023-11-02T22:26:36.128Z,94811.31
2023-11-02T22:29:02.689Z,94795.97
2023-11-02T22:31:32.067Z,94757.66
2023-11-02T22:33:59.064Z,94722.81
2023-11-02T22:36:25.700Z,94720.97
2023-11-02T22:38:52.313Z,94720.13
2023-11-02T22:41:18.910Z,94712.50
2023-11-02T22:43:45.608Z,94706.63
2023-11-02T22:46:12.292Z,94767.06
2023-11-02T22:48:39.979Z,94807.13
2023-11-02T22:51:06.907Z,94802.88
2023-11-02T22:53:36.687Z,94802.00
2023-11-02T22:56:10.165Z,94802.88
2023-11-02T22:58:36.741Z,94812.25
2023-11-02T23:01:03.567Z,94808.00
2023-11-02T23:03:30.231Z,94788.38
2023-11-02T23:05:57.237Z,94770.47
2023-11-02T23:08:24.146Z,94753.41
2023-11-02T23:10:50.725Z,94740.63
2023-11-02T23:13:18.068Z,94742.28
2023-11-02T23:15:44.761Z,94729.53
2023-11-02T23:18:11.802Z,94727.84
2023-11-02T23:20:38.842Z,94731.28
2023-11-02T23:23:07.890Z,94732.94
2023-11-02T23:25:34.466Z,94739.75
2023-11-02T23:28:01.011Z,94750.84
2023-11-02T23:30:27.567Z,94761.97
2023-11-02T23:32:54.631Z,94761.97
2023-11-02T23:35:21.441Z,94756.84
2023-11-02T23:37:48.092Z,94754.31
2023-11-02T23:40:15.944Z,94760.25
2023-11-02T23:42:46.072Z,94767.94
2023-11-02T23:45:12.833Z,94767.94
2023-11-02T23:47:39.858Z,94768.78
2023-11-02T23:50:07.027Z,94767.06
2023-11-02T23:52:36.610Z,94754.28
2023-11-02T23:55:03.707Z,94744.88
2023-11-02T23:57:30.885Z,94743.19
2023-11-02T23:59:57.635Z,94734.66
